Accokeek, Maryland
Current Conditions -  °F | °C
As of 11:18 PM on Sunday 23 Nov 2014 (Local Time) from KDAA Reporting Station
Light Rain Light Rain  
Wind Chill: 54°   Ceiling: 2200
Heat Index: 54°   Visibility: 4mi
Dew Point: 52°   Wind: 5mph
Humidity: 94%   Direction: NA
Pressure: 29.83"   Gusts: NA
Location:  38.67°N, 77.03°W
Report Text: KDAA 240418Z AUTO VRB04KT 4SM R32/4500FT -RA BR FEW008 OVC022 12/11 A2983 RMK AO2 OVC V BKN
Loading
Personal Weather Stations






























Interactive Weather Map New forecast layout! Learn more

10-Day Weather Forecast

Advertisements
Track Severe Weather on mobile